Time;durP1;ratioP1;P1;durP2;ratioP2;P2;SDS_P1;SDS_P2;PMS_P1;PMS_P2;Temp;Humidity;BMP_temperature;BMP_pressure;BME280_temperature;BME280_humidity;BME280_pressure;Samples;Min_cycle;Max_cycle;Signal;HPM_P1;HPM_P2
2024/02/26 00:00:05;;;;;;;17.23;11.40;;;7.40;99.90;;;;;;4161784;28;20440;-62
2024/02/26 00:02:06;;;;;;;17.80;10.60;;;7.30;99.90;;;;;;4160568;28;20038;-62
2024/02/26 00:04:08;;;;;;;13.87;8.20;;;7.30;99.90;;;;;;4161333;28;20103;-57
2024/02/26 00:06:11;;;;;;;13.47;8.53;;;7.30;99.90;;;;;;4160703;28;20677;-59
2024/02/26 00:08:12;;;;;;;14.47;7.83;;;7.30;99.90;;;;;;4161137;28;20038;-59
2024/02/26 00:10:14;;;;;;;17.67;8.77;;;7.30;99.90;;;;;;4160159;28;20586;-62
2024/02/26 00:12:15;;;;;;;11.63;7.33;;;7.30;99.90;;;;;;4161238;28;20029;-61
2024/02/26 00:14:16;;;;;;;10.73;7.37;;;7.30;99.90;;;;;;4160208;28;20143;-63
2024/02/26 00:16:18;;;;;;;11.00;7.30;;;7.30;99.90;;;;;;4161331;28;20049;-62
2024/02/26 00:18:19;;;;;;;13.97;7.03;;;7.30;99.90;;;;;;4160018;28;20092;-61
2024/02/26 00:20:20;;;;;;;15.67;8.77;;;7.20;99.90;;;;;;4161093;28;20723;-62
2024/02/26 00:22:22;;;;;;;15.30;8.30;;;7.20;99.90;;;;;;4160117;28;20050;-62
2024/02/26 00:24:23;;;;;;;13.10;8.67;;;7.20;99.90;;;;;;4161283;28;20072;-62
2024/02/26 00:26:24;;;;;;;14.03;8.20;;;7.10;99.90;;;;;;4160971;28;20387;-62
2024/02/26 00:28:27;;;;;;;15.53;9.17;;;7.10;99.90;;;;;;4160911;28;20029;-61
2024/02/26 00:30:28;;;;;;;11.60;7.73;;;7.00;99.90;;;;;;4160781;28;20037;-58
2024/02/26 00:32:29;;;;;;;13.80;8.93;;;7.00;99.90;;;;;;4160697;28;20034;-62
2024/02/26 00:34:31;;;;;;;15.27;9.43;;;7.00;99.90;;;;;;4143870;28;20037;-59
2024/02/26 00:36:32;;;;;;;13.87;9.03;;;7.00;99.90;;;;;;4159558;28;20103;-62
2024/02/26 00:38:33;;;;;;;13.30;8.03;;;7.00;99.90;;;;;;4160314;28;20107;-62
2024/02/26 00:40:35;;;;;;;13.90;7.77;;;6.90;99.90;;;;;;4160275;28;20099;-61
2024/02/26 00:42:36;;;;;;;12.67;8.20;;;6.90;99.90;;;;;;4161713;28;20034;-62
2024/02/26 00:44:37;;;;;;;12.77;7.80;;;6.90;99.90;;;;;;4159306;28;20107;-60
2024/02/26 00:46:38;;;;;;;13.87;8.40;;;6.90;99.90;;;;;;4161614;28;20079;-62
2024/02/26 00:48:40;;;;;;;10.90;7.73;;;7.00;99.90;;;;;;4160006;28;20099;-60
2024/02/26 00:50:41;;;;;;;10.97;8.00;;;7.00;99.90;;;;;;4161554;28;20359;-61
2024/02/26 00:52:42;;;;;;;14.43;8.63;;;7.00;99.90;;;;;;4160072;28;20519;-62
2024/02/26 00:54:43;;;;;;;12.83;9.03;;;7.00;99.90;;;;;;4159965;28;20038;-61
2024/02/26 00:56:45;;;;;;;14.97;9.00;;;6.90;99.90;;;;;;4159905;28;20501;-60
2024/02/26 00:58:46;;;;;;;14.77;9.27;;;6.90;99.90;;;;;;4160604;28;20049;-62
2024/02/26 01:00:47;;;;;;;16.63;9.83;;;6.80;99.90;;;;;;4160819;28;20025;-62
2024/02/26 01:02:48;;;;;;;15.57;8.67;;;6.70;99.90;;;;;;4159735;28;20029;-62
2024/02/26 01:04:50;;;;;;;16.53;9.63;;;6.70;99.90;;;;;;4161219;28;20469;-63
2024/02/26 01:06:51;;;;;;;18.73;10.00;;;6.70;99.90;;;;;;4160203;28;20025;-61
2024/02/26 01:08:52;;;;;;;17.83;11.00;;;6.70;99.90;;;;;;4160419;28;20038;-61
2024/02/26 01:10:53;;;;;;;20.33;11.10;;;6.70;99.90;;;;;;4159674;28;20045;-63
2024/02/26 01:12:55;;;;;;;23.77;12.20;;;6.60;99.90;;;;;;4160344;28;20331;-62
2024/02/26 01:14:56;;;;;;;22.67;12.63;;;6.60;99.90;;;;;;4159973;28;20034;-61
2024/02/26 01:16:57;;;;;;;24.23;13.30;;;6.60;99.90;;;;;;4160317;28;20099;-58
2024/02/26 01:18:58;;;;;;;23.70;13.13;;;6.50;99.90;;;;;;4159702;28;20029;-56
2024/02/26 01:20:59;;;;;;;27.73;13.30;;;6.50;99.90;;;;;;4161271;28;20091;-58
2024/02/26 01:23:01;;;;;;;19.43;11.80;;;6.50;99.90;;;;;;4160485;28;20018;-59
2024/02/26 01:25:02;;;;;;;25.47;13.90;;;6.40;99.90;;;;;;4160826;28;20075;-61
2024/02/26 01:27:04;;;;;;;25.73;13.90;;;6.40;99.90;;;;;;4160272;28;20081;-60
2024/02/26 01:29:05;;;;;;;23.33;14.00;;;6.40;99.90;;;;;;4160028;28;20093;-62
2024/02/26 01:31:08;;;;;;;26.10;14.70;;;6.40;99.90;;;;;;4160305;28;20029;-62
2024/02/26 01:33:09;;;;;;;22.83;14.10;;;6.30;99.90;;;;;;4159562;28;20037;-64
2024/02/26 01:35:11;;;;;;;25.60;13.93;;;6.30;99.90;;;;;;4160605;28;20041;-62
2024/02/26 01:37:13;;;;;;;23.50;13.50;;;6.30;99.90;;;;;;4158991;28;20033;-61
2024/02/26 01:39:14;;;;;;;27.33;14.40;;;6.20;99.90;;;;;;4160921;28;20045;-62
2024/02/26 01:41:15;;;;;;;19.77;12.63;;;6.20;99.90;;;;;;4159125;28;20875;-62
2024/02/26 01:43:16;;;;;;;26.97;13.60;;;6.10;99.90;;;;;;4160603;28;20030;-63
2024/02/26 01:45:23;;;;;;;23.53;12.47;;;6.20;99.90;;;;;;4159242;28;20072;-61
2024/02/26 01:47:26;;;;;;;21.73;14.03;;;6.10;99.90;;;;;;4160641;28;20486;-62
2024/02/26 01:49:28;;;;;;;24.03;12.67;;;6.10;99.90;;;;;;4159273;28;20049;-61
2024/02/26 01:51:32;;;;;;;17.60;11.87;;;6.10;99.90;;;;;;4160558;28;20045;-62
2024/02/26 01:53:33;;;;;;;21.90;13.47;;;6.00;99.90;;;;;;4159765;28;20445;-62
2024/02/26 01:55:35;;;;;;;22.83;13.57;;;6.00;99.90;;;;;;4160471;28;20041;-62
2024/02/26 01:57:36;;;;;;;21.40;12.13;;;6.00;99.90;;;;;;4159104;28;20045;-62
2024/02/26 01:59:38;;;;;;;22.03;12.73;;;6.00;99.90;;;;;;4160154;28;20418;-63
2024/02/26 02:01:45;;;;;;;26.10;13.70;;;5.90;99.90;;;;;;4159545;28;20375;-63
2024/02/26 02:03:46;;;;;;;22.47;13.00;;;5.90;99.90;;;;;;4159634;28;20050;-62
2024/02/26 02:05:47;;;;;;;25.87;13.87;;;5.80;99.90;;;;;;4159577;28;20053;-61
2024/02/26 02:07:48;;;;;;;22.00;12.97;;;5.80;99.90;;;;;;4160214;28;20037;-63
2024/02/26 02:09:50;;;;;;;23.67;13.77;;;5.70;99.90;;;;;;4160447;28;20403;-61
2024/02/26 02:11:52;;;;;;;29.20;15.43;;;5.70;99.90;;;;;;4159684;28;20034;-57
2024/02/26 02:13:53;;;;;;;23.20;14.33;;;5.70;99.90;;;;;;4160904;28;20034;-59
2024/02/26 02:15:54;;;;;;;23.87;13.73;;;5.60;99.90;;;;;;4159099;28;20045;-59
2024/02/26 02:17:56;;;;;;;24.07;12.83;;;5.60;99.90;;;;;;4160946;28;20458;-61
2024/02/26 02:19:57;;;;;;;24.73;13.20;;;5.50;99.90;;;;;;4158853;28;20030;-57
2024/02/26 02:21:58;;;;;;;27.43;14.07;;;5.40;99.90;;;;;;4161917;28;20458;-56
2024/02/26 02:23:59;;;;;;;22.03;12.40;;;5.40;99.90;;;;;;4163164;28;20504;-62
2024/02/26 02:26:01;;;;;;;26.47;12.40;;;5.30;99.90;;;;;;4163521;28;20378;-62
2024/02/26 02:28:02;;;;;;;22.87;12.70;;;5.40;99.90;;;;;;4162435;28;20107;-59
2024/02/26 02:30:04;;;;;;;20.43;12.27;;;5.40;99.90;;;;;;4163090;28;20049;-59
2024/02/26 02:32:06;;;;;;;23.70;13.80;;;5.40;99.90;;;;;;4162681;28;20025;-57
2024/02/26 02:34:09;;;;;;;25.30;12.40;;;5.40;99.90;;;;;;4163184;28;20379;-63
2024/02/26 02:36:11;;;;;;;20.53;11.63;;;5.40;99.90;;;;;;4161953;28;20029;-60
2024/02/26 02:38:12;;;;;;;21.63;12.33;;;5.40;99.90;;;;;;4162192;28;20127;-62
2024/02/26 02:40:13;;;;;;;19.23;11.07;;;5.40;99.90;;;;;;4163264;28;20029;-61
2024/02/26 02:42:15;;;;;;;20.97;11.03;;;5.40;99.90;;;;;;4161416;28;20410;-61
2024/02/26 02:44:16;;;;;;;18.13;11.03;;;5.30;99.90;;;;;;4144702;28;20038;-62
2024/02/26 02:46:18;;;;;;;17.23;10.43;;;5.40;99.90;;;;;;4161671;28;20045;-62
2024/02/26 02:48:19;;;;;;;19.53;9.17;;;5.40;99.90;;;;;;4162185;28;20549;-62
2024/02/26 02:50:20;;;;;;;21.07;10.40;;;5.40;99.90;;;;;;4160389;28;20111;-62
2024/02/26 02:52:22;;;;;;;21.77;10.10;;;5.30;99.90;;;;;;4163474;28;20029;-61
2024/02/26 02:54:23;;;;;;;18.33;10.37;;;5.30;99.90;;;;;;4161257;28;20095;-62
2024/02/26 02:56:24;;;;;;;19.13;11.37;;;5.30;99.90;;;;;;4161435;28;20037;-64
2024/02/26 02:58:26;;;;;;;18.23;10.20;;;5.30;99.90;;;;;;4162073;28;20041;-63
2024/02/26 03:00:27;;;;;;;18.17;10.37;;;5.30;99.90;;;;;;4162352;28;20042;-60
2024/02/26 03:02:29;;;;;;;18.00;10.37;;;5.30;99.90;;;;;;4162144;28;20024;-61
2024/02/26 03:04:30;;;;;;;24.87;12.37;;;5.30;99.90;;;;;;4162613;28;20481;-58
2024/02/26 03:06:32;;;;;;;21.47;11.40;;;5.30;99.90;;;;;;4162433;28;20033;-57
2024/02/26 03:08:36;;;;;;;20.93;12.73;;;5.20;99.90;;;;;;4161559;28;20079;-59
2024/02/26 03:10:37;;;;;;;25.07;12.73;;;5.00;99.90;;;;;;4162207;28;20079;-57
2024/02/26 03:12:39;;;;;;;29.23;12.87;;;4.90;99.90;;;;;;4162088;28;20068;-58
2024/02/26 03:14:40;;;;;;;25.23;14.10;;;4.70;99.90;;;;;;4163009;28;20103;-59
2024/02/26 03:16:41;;;;;;;26.17;13.43;;;4.60;99.90;;;;;;4161798;28;20094;-57
2024/02/26 03:18:42;;;;;;;24.87;13.50;;;4.50;99.90;;;;;;4162137;28;20107;-62
2024/02/26 03:20:44;;;;;;;29.00;14.73;;;4.40;99.90;;;;;;4161819;28;20041;-60
2024/02/26 03:22:45;;;;;;;26.30;13.07;;;4.40;99.90;;;;;;4162385;28;20473;-62
2024/02/26 03:24:47;;;;;;;29.07;13.10;;;4.40;99.90;;;;;;4161834;28;20736;-61
2024/02/26 03:26:49;;;;;;;26.50;14.40;;;4.40;99.90;;;;;;4161649;28;20095;-61
2024/02/26 03:28:50;;;;;;;28.57;15.00;;;4.40;99.90;;;;;;4160815;28;20502;-60
2024/02/26 03:30:51;;;;;;;28.03;14.37;;;4.40;99.90;;;;;;4162158;28;20042;-61
2024/02/26 03:32:52;;;;;;;28.43;14.47;;;4.40;99.90;;;;;;4161019;28;20030;-62
2024/02/26 03:34:55;;;;;;;26.87;15.17;;;4.40;99.90;;;;;;4161259;28;20123;-65
2024/02/26 03:36:57;;;;;;;21.27;13.27;;;4.50;99.90;;;;;;4161201;28;20309;-64
2024/02/26 03:38:58;;;;;;;25.57;14.40;;;4.50;99.90;;;;;;4162040;28;20093;-63
2024/02/26 03:41:00;;;;;;;29.83;15.80;;;4.50;99.90;;;;;;4161534;28;20045;-64
2024/02/26 03:43:02;;;;;;;44.87;25.00;;;4.50;99.90;;;;;;4160380;28;20081;-62
2024/02/26 03:45:04;;;;;;;34.83;18.87;;;4.50;99.90;;;;;;4161527;28;20447;-63
2024/02/26 03:47:05;;;;;;;30.13;16.23;;;4.50;99.90;;;;;;4160247;28;20330;-62
2024/02/26 03:49:06;;;;;;;29.63;13.57;;;4.50;99.90;;;;;;4161324;28;20115;-63
2024/02/26 03:51:10;;;;;;;26.93;13.73;;;4.50;99.90;;;;;;4161259;28;20080;-64
2024/02/26 03:53:12;;;;;;;27.23;13.70;;;4.50;99.90;;;;;;4162233;28;20041;-64
2024/02/26 03:55:13;;;;;;;23.97;13.00;;;4.50;99.90;;;;;;4161034;28;20064;-63
2024/02/26 03:57:15;;;;;;;20.57;11.97;;;4.50;99.90;;;;;;4161491;28;20068;-60
2024/02/26 03:59:16;;;;;;;18.03;11.97;;;4.40;99.90;;;;;;4160896;28;20065;-64
2024/02/26 04:01:18;;;;;;;23.97;12.10;;;4.40;99.90;;;;;;4162249;28;20041;-63
2024/02/26 04:03:19;;;;;;;19.00;12.03;;;4.50;99.90;;;;;;4161035;28;20493;-62
2024/02/26 04:05:21;;;;;;;22.00;12.90;;;4.50;99.90;;;;;;4161986;28;20283;-65
2024/02/26 04:07:22;;;;;;;21.33;11.87;;;4.50;99.90;;;;;;4161112;28;20075;-64
2024/02/26 04:09:23;;;;;;;21.33;11.33;;;4.40;99.90;;;;;;4161965;28;20137;-65
2024/02/26 04:11:26;;;;;;;21.40;12.23;;;4.40;99.90;;;;;;4161117;28;20309;-64
2024/02/26 04:13:27;;;;;;;21.13;11.93;;;4.40;99.90;;;;;;4161246;28;20075;-64
2024/02/26 04:15:28;;;;;;;18.57;10.70;;;4.40;99.90;;;;;;4143413;28;20129;-63
2024/02/26 04:17:30;;;;;;;21.10;11.60;;;4.40;99.90;;;;;;4160896;28;20103;-63
2024/02/26 04:19:31;;;;;;;20.67;12.23;;;4.40;99.90;;;;;;4161226;28;20168;-58
2024/02/26 04:21:33;;;;;;;22.07;12.67;;;4.40;99.90;;;;;;4160896;28;20037;-62
2024/02/26 04:23:34;;;;;;;21.87;11.97;;;4.40;99.90;;;;;;4162417;28;20029;-60
2024/02/26 04:25:36;;;;;;;22.03;13.00;;;4.30;99.90;;;;;;4160051;28;20154;-63
2024/02/26 04:27:37;;;;;;;29.30;14.17;;;4.30;99.90;;;;;;4161264;28;20159;-64
2024/02/26 04:29:38;;;;;;;32.70;15.87;;;4.30;99.90;;;;;;4159869;28;20091;-63
2024/02/26 04:31:39;;;;;;;32.90;15.20;;;4.30;99.90;;;;;;4161322;28;20111;-64
2024/02/26 04:33:42;;;;;;;28.87;15.40;;;4.20;99.90;;;;;;4160353;28;20037;-64
2024/02/26 04:35:43;;;;;;;30.47;14.97;;;4.20;99.90;;;;;;4161423;28;20482;-63
2024/02/26 04:37:44;;;;;;;27.30;15.43;;;4.20;99.90;;;;;;4160330;28;20029;-64
2024/02/26 04:39:45;;;;;;;28.60;14.83;;;4.20;99.90;;;;;;4160144;28;20341;-62
2024/02/26 04:41:49;;;;;;;33.77;15.00;;;4.20;99.90;;;;;;4160644;28;20136;-58
2024/02/26 04:43:50;;;;;;;24.03;13.87;;;4.20;99.90;;;;;;4160136;28;20275;-64
2024/02/26 04:45:52;;;;;;;24.03;13.17;;;4.20;99.90;;;;;;4159442;28;20329;-62
2024/02/26 04:47:55;;;;;;;22.87;13.83;;;4.10;99.90;;;;;;4159828;28;20325;-63
2024/02/26 04:49:56;;;;;;;24.67;13.00;;;4.10;99.90;;;;;;4160731;28;20714;-62
2024/02/26 04:51:57;;;;;;;21.37;11.27;;;4.20;99.90;;;;;;4158956;28;20569;-63
2024/02/26 04:53:59;;;;;;;33.40;12.83;;;4.20;99.90;;;;;;4160972;28;20401;-61
2024/02/26 04:56:00;;;;;;;23.03;11.67;;;4.20;99.90;;;;;;4159316;28;20045;-57
2024/02/26 04:58:01;;;;;;;17.30;11.03;;;4.20;99.90;;;;;;4160805;28;20041;-62
2024/02/26 05:00:04;;;;;;;19.47;9.97;;;4.20;99.90;;;;;;4159280;28;20616;-63
2024/02/26 05:02:06;;;;;;;22.10;13.63;;;4.20;99.90;;;;;;4160227;28;20267;-63
2024/02/26 05:04:07;;;;;;;22.17;12.13;;;4.20;99.90;;;;;;4160205;28;20321;-63
2024/02/26 05:06:11;;;;;;;22.13;12.00;;;4.20;99.90;;;;;;4160280;28;20140;-63
2024/02/26 05:08:14;;;;;;;22.80;11.03;;;4.20;99.90;;;;;;4160427;28;20270;-63
2024/02/26 05:10:15;;;;;;;23.43;10.50;;;4.20;99.90;;;;;;4159684;28;20674;-61
2024/02/26 05:12:16;;;;;;;22.20;10.03;;;4.20;99.90;;;;;;4159688;28;20771;-63
2024/02/26 05:14:18;;;;;;;17.93;9.53;;;4.20;99.90;;;;;;4159626;28;20037;-58
2024/02/26 05:16:21;;;;;;;17.93;10.67;;;4.30;99.90;;;;;;4159228;28;20827;-60
2024/02/26 05:18:22;;;;;;;20.10;10.97;;;4.20;99.90;;;;;;4159111;28;20646;-64
2024/02/26 05:20:24;;;;;;;19.80;10.00;;;4.20;99.90;;;;;;4159625;28;20310;-60
2024/02/26 05:22:25;;;;;;;22.43;10.83;;;4.20;99.90;;;;;;4159573;28;20071;-61
2024/02/26 05:24:26;;;;;;;17.90;10.57;;;4.20;99.90;;;;;;4160186;28;20635;-59
2024/02/26 05:26:27;;;;;;;26.43;14.00;;;4.20;99.90;;;;;;4158776;28;20820;-61
2024/02/26 05:28:29;;;;;;;29.13;13.70;;;4.20;99.90;;;;;;4159749;28;20271;-62
2024/02/26 05:30:30;;;;;;;27.93;13.50;;;4.10;99.90;;;;;;4158369;28;20912;-60
2024/02/26 05:32:31;;;;;;;27.93;14.10;;;4.00;99.90;;;;;;4160304;28;20297;-57
2024/02/26 05:34:33;;;;;;;26.00;13.40;;;3.90;99.90;;;;;;4159031;28;20872;-62
2024/02/26 05:36:34;;;;;;;32.70;15.23;;;3.90;99.90;;;;;;4160011;28;20790;-61
2024/02/26 05:38:35;;;;;;;33.90;15.37;;;3.90;99.90;;;;;;4158765;28;20091;-62
2024/02/26 05:40:37;;;;;;;32.23;15.27;;;3.80;99.90;;;;;;4160083;28;20290;-58
2024/02/26 05:42:38;;;;;;;32.20;15.20;;;3.90;99.90;;;;;;4159191;28;20270;-59
2024/02/26 05:44:39;;;;;;;30.07;14.73;;;3.80;99.90;;;;;;4160103;28;20267;-61
2024/02/26 05:46:41;;;;;;;30.80;16.10;;;3.90;99.90;;;;;;4160063;28;20382;-56
2024/02/26 05:48:43;;;;;;;35.17;16.13;;;4.00;99.90;;;;;;4160275;28;20341;-56
2024/02/26 05:50:44;;;;;;;37.63;17.90;;;4.00;99.90;;;;;;4159733;28;20259;-59
2024/02/26 05:52:46;;;;;;;32.30;14.67;;;4.10;99.90;;;;;;4159300;28;20267;-62
2024/02/26 05:54:47;;;;;;;29.57;15.27;;;4.20;99.90;;;;;;4160933;28;21165;-61
2024/02/26 05:56:48;;;;;;;30.37;16.67;;;4.30;99.90;;;;;;4160006;28;20333;-57
2024/02/26 05:58:50;;;;;;;29.23;14.93;;;4.30;99.90;;;;;;4163417;28;20294;-61
2024/02/26 06:00:51;;;;;;;37.27;17.60;;;4.40;99.90;;;;;;4162439;28;20738;-58
2024/02/26 06:02:52;;;;;;;40.73;17.63;;;4.40;99.90;;;;;;4163650;28;21339;-63
2024/02/26 06:04:54;;;;;;;24.13;14.60;;;4.50;99.90;;;;;;4162121;28;21071;-60
2024/02/26 06:06:55;;;;;;;32.17;16.03;;;4.50;99.90;;;;;;4163841;28;20489;-61
2024/02/26 06:08:56;;;;;;;30.33;15.90;;;4.50;99.90;;;;;;4162285;28;20283;-56
2024/02/26 06:10:57;;;;;;;23.43;14.50;;;4.60;99.90;;;;;;4163355;28;20029;-61
2024/02/26 06:12:58;;;;;;;28.47;15.00;;;4.60;99.90;;;;;;4162694;28;20083;-59
2024/02/26 06:15:01;;;;;;;31.33;17.27;;;4.70;99.90;;;;;;4162646;28;20087;-61
2024/02/26 06:17:02;;;;;;;34.00;16.63;;;4.80;99.90;;;;;;4162544;28;20065;-61
2024/02/26 06:19:03;;;;;;;27.03;13.67;;;4.80;99.90;;;;;;4162696;28;20271;-54
2024/02/26 06:21:09;;;;;;;22.40;12.77;;;4.80;99.90;;;;;;4163315;28;20317;-57
2024/02/26 06:23:10;;;;;;;21.57;12.27;;;4.80;99.90;;;;;;4162537;28;20046;-60
2024/02/26 06:25:12;;;;;;;21.60;13.17;;;4.90;99.90;;;;;;4163086;28;20084;-58
2024/02/26 06:27:13;;;;;;;22.00;12.90;;;5.00;99.90;;;;;;4161782;28;20099;-57
2024/02/26 06:29:15;;;;;;;28.97;13.83;;;5.10;99.90;;;;;;4162943;28;20091;-59
2024/02/26 06:31:17;;;;;;;21.50;13.67;;;5.40;99.90;;;;;;4161870;28;20095;-56
2024/02/26 06:33:18;;;;;;;22.33;12.40;;;5.50;99.90;;;;;;4162805;28;20447;-60
2024/02/26 06:35:19;;;;;;;19.90;12.97;;;5.70;99.90;;;;;;4161146;28;20038;-59
2024/02/26 06:37:21;;;;;;;22.83;13.17;;;5.90;99.90;;;;;;4162872;28;20041;-58
2024/02/26 06:39:22;;;;;;;36.13;15.17;;;5.70;99.90;;;;;;4161794;28;20056;-58
2024/02/26 06:41:27;;;;;;;35.30;16.00;;;5.40;99.90;;;;;;4163031;28;20155;-60
2024/02/26 06:43:28;;;;;;;43.00;18.07;;;5.50;99.90;;;;;;4161897;28;20096;-60
2024/02/26 06:45:30;;;;;;;43.33;18.77;;;5.50;99.90;;;;;;4162926;28;20041;-58
2024/02/26 06:47:31;;;;;;;43.63;18.40;;;5.60;99.90;;;;;;4161903;28;20091;-53
2024/02/26 06:49:32;;;;;;;27.17;15.67;;;5.80;99.90;;;;;;4162338;28;20030;-60
2024/02/26 06:51:33;;;;;;;33.33;15.87;;;5.90;99.90;;;;;;4161994;28;20718;-57
2024/02/26 06:53:35;;;;;;;39.90;16.50;;;6.00;99.90;;;;;;4162049;28;20045;-55
2024/02/26 06:55:40;;;;;;;40.30;19.77;;;6.20;99.90;;;;;;4162291;28;20506;-52
2024/02/26 06:57:41;;;;;;;57.30;27.20;;;6.30;99.90;;;;;;4161330;28;20079;-53
2024/02/26 06:59:46;;;;;;;44.87;23.70;;;6.40;99.90;;;;;;4162754;28;20092;-55
2024/02/26 07:01:47;;;;;;;53.50;25.33;;;6.50;99.90;;;;;;4162069;28;20026;-58
2024/02/26 07:03:48;;;;;;;50.53;23.97;;;6.60;99.90;;;;;;4162376;28;20041;-57
2024/02/26 07:05:50;;;;;;;47.63;23.30;;;6.70;99.90;;;;;;4161930;28;20029;-57
2024/02/26 07:07:51;;;;;;;53.60;22.77;;;6.90;99.90;;;;;;4162661;28;20041;-57
2024/02/26 07:09:52;;;;;;;46.20;21.57;;;7.00;99.90;;;;;;4161584;28;20022;-60
2024/02/26 07:11:54;;;;;;;43.23;20.73;;;7.00;99.90;;;;;;4162163;28;20033;-60
2024/02/26 07:13:55;;;;;;;34.87;20.57;;;7.10;99.90;;;;;;4161622;28;20025;-58
2024/02/26 07:15:56;;;;;;;43.83;21.70;;;7.20;99.90;;;;;;4162779;28;20021;-60
2024/02/26 07:18:02;;;;;;;48.23;21.60;;;7.10;99.90;;;;;;4161347;28;20103;-57
2024/02/26 07:20:04;;;;;;;38.37;18.90;;;7.20;99.90;;;;;;4144343;28;20057;-59
2024/02/26 07:22:05;;;;;;;42.63;19.23;;;7.00;99.90;;;;;;4161538;28;20043;-59
2024/02/26 07:24:07;;;;;;;39.53;18.17;;;6.90;99.90;;;;;;4162106;28;20046;-58
2024/02/26 07:26:08;;;;;;;35.83;18.70;;;7.10;99.90;;;;;;4161393;28;20099;-54
2024/02/26 07:28:09;;;;;;;30.37;17.60;;;7.10;99.90;;;;;;4161436;28;20152;-58
2024/02/26 07:30:11;;;;;;;37.80;20.60;;;7.00;99.90;;;;;;4161910;28;20033;-59
2024/02/26 07:32:12;;;;;;;40.67;20.33;;;6.90;99.90;;;;;;4161420;28;20075;-61
2024/02/26 07:34:14;;;;;;;37.60;20.17;;;6.80;99.90;;;;;;4162181;28;20038;-59
2024/02/26 07:36:15;;;;;;;41.07;22.87;;;6.80;99.90;;;;;;4161049;28;20441;-60
2024/02/26 07:38:16;;;;;;;41.67;21.03;;;6.90;99.90;;;;;;4162228;28;20069;-57
2024/02/26 07:40:17;;;;;;;42.37;22.13;;;7.00;99.90;;;;;;4160928;28;20037;-54
2024/02/26 07:42:19;;;;;;;38.43;21.37;;;7.20;99.90;;;;;;4161527;28;20111;-54
2024/02/26 07:44:20;;;;;;;40.47;20.97;;;7.30;99.90;;;;;;4160842;28;20076;-58
2024/02/26 07:46:21;;;;;;;34.03;20.97;;;7.30;99.90;;;;;;4161795;28;21018;-51
2024/02/26 07:48:22;;;;;;;35.97;20.07;;;7.30;99.90;;;;;;4161294;28;20084;-56
2024/02/26 07:50:24;;;;;;;38.07;20.27;;;7.40;99.90;;;;;;4162188;28;20037;-59
2024/02/26 07:52:25;;;;;;;31.80;19.57;;;7.50;99.90;;;;;;4160810;28;20076;-59
2024/02/26 07:54:26;;;;;;;33.63;18.77;;;7.50;99.90;;;;;;4162029;28;20042;-56
2024/02/26 07:56:27;;;;;;;35.63;17.43;;;7.50;99.90;;;;;;4161121;28;20022;-59
2024/02/26 07:58:29;;;;;;;34.77;18.23;;;7.60;99.90;;;;;;4160733;28;20041;-58
2024/02/26 08:00:30;;;;;;;35.07;18.17;;;7.70;99.90;;;;;;4161597;28;20083;-58
2024/02/26 08:02:31;;;;;;;32.27;18.63;;;7.80;99.90;;;;;;4160306;28;20045;-59
2024/02/26 08:04:32;;;;;;;37.83;20.00;;;8.00;99.90;;;;;;4161431;28;20080;-56
2024/02/26 08:06:35;;;;;;;38.90;21.23;;;7.90;99.90;;;;;;4160438;28;20045;-58
2024/02/26 08:08:36;;;;;;;45.90;22.63;;;7.80;99.90;;;;;;4161725;28;20102;-59
2024/02/26 08:10:37;;;;;;;42.57;22.53;;;7.70;99.90;;;;;;4160417;28;20200;-56
2024/02/26 08:12:39;;;;;;;42.87;21.67;;;7.70;99.90;;;;;;4161347;28;20489;-56
2024/02/26 08:14:40;;;;;;;42.57;20.90;;;7.80;99.90;;;;;;4160492;28;20053;-56
2024/02/26 08:16:41;;;;;;;41.13;19.40;;;8.00;99.90;;;;;;4161792;28;20041;-58
2024/02/26 08:18:43;;;;;;;46.57;21.07;;;8.10;99.90;;;;;;4159774;28;20093;-56
2024/02/26 08:20:44;;;;;;;27.00;17.63;;;8.30;99.90;;;;;;4160460;28;20401;-59
2024/02/26 08:22:45;;;;;;;34.87;17.40;;;8.40;99.90;;;;;;4160463;28;20051;-56
2024/02/26 08:24:46;;;;;;;37.90;19.60;;;8.40;99.90;;;;;;4161619;28;20037;-54
2024/02/26 08:26:48;;;;;;;41.47;23.30;;;8.50;99.90;;;;;;4160617;28;20115;-55
2024/02/26 08:28:51;;;;;;;39.37;21.20;;;8.50;99.90;;;;;;4160825;28;20454;-59
2024/02/26 08:30:52;;;;;;;28.40;16.50;;;8.60;99.90;;;;;;4160523;28;20108;-59
2024/02/26 08:32:53;;;;;;;22.63;13.77;;;8.70;99.90;;;;;;4160487;28;20038;-58
2024/02/26 08:34:54;;;;;;;23.57;12.73;;;8.70;99.90;;;;;;4161439;28;20401;-57
2024/02/26 08:36:56;;;;;;;24.97;12.40;;;8.80;99.90;;;;;;4159786;28;20038;-60
2024/02/26 08:38:57;;;;;;;18.53;12.50;;;8.90;99.90;;;;;;4160986;28;20477;-57
2024/02/26 08:40:58;;;;;;;23.93;12.93;;;9.00;99.90;;;;;;4160126;28;20099;-59
2024/02/26 08:42:59;;;;;;;15.90;11.63;;;9.10;99.90;;;;;;4161203;28;20029;-57
2024/02/26 08:45:02;;;;;;;17.43;10.57;;;9.20;99.90;;;;;;4159255;28;20107;-59
2024/02/26 08:47:03;;;;;;;19.50;10.20;;;9.30;99.90;;;;;;4161286;28;20102;-57
2024/02/26 08:49:05;;;;;;;18.60;11.10;;;9.50;99.90;;;;;;4160317;28;20021;-59
2024/02/26 08:51:07;;;;;;;20.00;9.77;;;9.70;99.90;;;;;;4161230;28;20796;-60
2024/02/26 08:53:08;;;;;;;16.77;9.37;;;9.90;99.90;;;;;;4160301;28;20454;-59
2024/02/26 08:55:10;;;;;;;13.50;8.40;;;10.00;99.90;;;;;;4160704;28;20095;-57
2024/02/26 08:57:11;;;;;;;16.57;8.50;;;10.10;99.90;;;;;;4159929;28;20099;-57
2024/02/26 08:59:12;;;;;;;14.97;9.57;;;10.10;99.90;;;;;;4159526;28;20076;-57
2024/02/26 09:01:13;;;;;;;14.87;8.20;;;10.20;99.90;;;;;;4159693;28;20107;-61
2024/02/26 09:03:15;;;;;;;14.87;8.20;;;10.30;99.90;;;;;;4160004;28;20029;-62
2024/02/26 09:05:16;;;;;;;14.90;7.70;;;10.30;99.90;;;;;;4160545;28;20111;-58
2024/02/26 09:07:17;;;;;;;11.00;6.47;;;10.40;99.90;;;;;;4160178;28;20022;-52
2024/02/26 09:09:19;;;;;;;11.07;6.53;;;10.60;99.90;;;;;;4160780;28;20037;-58
2024/02/26 09:11:20;;;;;;;9.40;6.03;;;10.70;99.90;;;;;;4159560;28;20508;-59
2024/02/26 09:13:21;;;;;;;5.97;4.40;;;10.90;99.90;;;;;;4160952;28;20033;-59
2024/02/26 09:15:22;;;;;;;12.13;5.83;;;11.00;99.90;;;;;;4159970;28;20042;-60
2024/02/26 09:17:23;;;;;;;9.93;5.23;;;11.10;99.90;;;;;;4160737;28;20498;-63
2024/02/26 09:19:27;;;;;;;7.43;4.77;;;11.30;99.90;;;;;;4159213;28;20038;-58
2024/02/26 09:21:28;;;;;;;13.63;4.43;;;11.40;99.90;;;;;;4160886;28;20029;-56
2024/02/26 09:23:30;;;;;;;5.97;4.03;;;11.50;99.90;;;;;;4159924;28;20083;-59
2024/02/26 09:25:33;;;;;;;6.23;3.97;;;11.60;99.90;;;;;;4159960;28;20041;-59
2024/02/26 09:27:34;;;;;;;4.70;3.73;;;11.70;99.90;;;;;;4160180;28;20029;-60
2024/02/26 09:29:36;;;;;;;5.10;3.77;;;11.70;99.90;;;;;;4160380;28;20079;-63
2024/02/26 09:31:40;;;;;;;8.90;4.40;;;11.70;99.90;;;;;;4163903;28;20037;-61
2024/02/26 09:33:41;;;;;;;9.43;4.83;;;11.70;99.90;;;;;;4164933;28;20037;-59
2024/02/26 09:35:42;;;;;;;8.37;5.00;;;11.70;99.90;;;;;;4165674;28;20536;-55
2024/02/26 09:37:44;;;;;;;6.17;4.23;;;11.70;99.90;;;;;;4165713;28;20025;-61
2024/02/26 09:39:46;;;;;;;6.77;3.87;;;11.80;99.90;;;;;;4165535;28;20041;-58
2024/02/26 09:41:48;;;;;;;5.70;4.00;;;11.90;99.90;;;;;;4147487;28;20088;-64
2024/02/26 09:43:54;;;;;;;6.87;4.23;;;12.10;99.90;;;;;;4166001;28;20041;-59
2024/02/26 09:45:55;;;;;;;6.40;3.90;;;12.20;99.90;;;;;;4165225;28;20029;-61
2024/02/26 09:47:57;;;;;;;6.57;4.17;;;12.20;99.90;;;;;;4165689;28;20045;-59
2024/02/26 09:50:02;;;;;;;5.57;3.17;;;12.30;99.90;;;;;;4164900;28;20042;-61
2024/02/26 09:52:04;;;;;;;7.17;3.70;;;12.40;99.90;;;;;;4165531;28;20123;-62
2024/02/26 09:54:09;;;;;;;5.53;3.53;;;12.60;99.90;;;;;;4165835;28;20425;-60
2024/02/26 09:56:12;;;;;;;6.57;3.93;;;12.60;99.90;;;;;;4165540;28;20037;-60
2024/02/26 09:58:18;;;;;;;6.80;4.37;;;12.90;99.90;;;;;;4179870;28;20052;-59
2024/02/26 10:00:21;;;;;;;6.30;3.97;;;13.10;99.90;;;;;;4166404;28;20052;-58
2024/02/26 10:02:23;;;;;;;6.23;3.40;;;13.30;99.90;;;;;;4165278;28;20029;-61
2024/02/26 10:04:25;;;;;;;6.90;3.67;;;13.40;99.90;;;;;;4165589;28;20091;-60
2024/02/26 10:06:27;;;;;;;6.87;3.37;;;13.50;99.90;;;;;;4147445;28;20460;-61
2024/02/26 10:08:29;;;;;;;4.73;3.47;;;13.70;99.90;;;;;;4165465;28;20055;-63
2024/02/26 10:10:32;;;;;;;4.57;2.80;;;13.80;99.90;;;;;;4165590;28;20091;-57
2024/02/26 10:12:33;;;;;;;4.70;3.10;;;13.80;99.90;;;;;;4164896;28;20041;-62
2024/02/26 10:14:36;;;;;;;3.67;3.00;;;13.80;99.90;;;;;;4166187;28;20323;-60
2024/02/26 10:16:38;;;;;;;3.60;3.03;;;13.80;99.90;;;;;;4164171;28;20490;-58
2024/02/26 10:18:54;;;;;;;4.10;2.83;;;13.80;99.90;;;;;;4165364;28;20432;-61
2024/02/26 10:21:02;;;;;;;5.50;3.60;;;13.90;99.90;;;;;;4164824;28;20113;-60
2024/02/26 10:23:04;;;;;;;5.40;2.83;;;14.00;99.90;;;;;;4165177;28;20562;-60
2024/02/26 10:25:07;;;;;;;4.17;2.70;;;14.20;99.90;;;;;;4165138;28;20045;-52